Time;durP1;ratioP1;P1;durP2;ratioP2;P2;SDS_P1;SDS_P2;PMS_P1;PMS_P2;Temp;Humidity;BMP_temperature;BMP_pressure;BME280_temperature;BME280_humidity;BME280_pressure;Samples;Min_cycle;Max_cycle;Signal;HPM_P1;HPM_P2
2022/01/19 00:01:14;;;;;;;32.25;16.58;;;;;;;2.74;86.52;103096.72;5089173;28;20185;-68
2022/01/19 00:03:40;;;;;;;28.00;15.25;;;;;;;2.73;86.41;103089.66;5093457;28;20032;-69
2022/01/19 00:06:05;;;;;;;29.55;15.82;;;;;;;2.69;85.81;103082.81;5093285;28;20032;-68
2022/01/19 00:08:31;;;;;;;27.75;15.45;;;;;;;2.65;85.97;103074.19;5091457;28;20028;-68
2022/01/19 00:10:57;;;;;;;27.08;15.00;;;;;;;2.61;86.28;103068.25;5093116;28;20035;-68
2022/01/19 00:13:22;;;;;;;24.48;14.40;;;;;;;2.59;86.23;103067.50;5092858;28;20457;-68
2022/01/19 00:15:48;;;;;;;26.30;14.80;;;;;;;2.56;85.84;103083.78;5092936;28;20467;-69
2022/01/19 00:18:16;;;;;;;26.58;14.90;;;;;;;2.52;86.07;103082.31;5092775;28;20039;-68
2022/01/19 00:20:41;;;;;;;27.73;15.57;;;;;;;2.51;86.10;103085.97;5092971;28;20028;-68
2022/01/19 00:23:06;;;;;;;29.05;15.15;;;;;;;2.47;86.38;103084.47;5092456;28;20081;-68
2022/01/19 00:25:32;;;;;;;30.83;15.20;;;;;;;2.45;86.54;103067.72;5092939;28;20451;-68
2022/01/19 00:27:58;;;;;;;31.00;15.65;;;;;;;2.42;86.21;103059.94;5092797;28;20444;-69
2022/01/19 00:30:24;;;;;;;26.42;15.23;;;;;;;2.39;86.67;103044.13;5092340;28;20059;-68
2022/01/19 00:32:49;;;;;;;30.20;15.35;;;;;;;2.39;86.52;103026.28;5092793;28;20078;-68
2022/01/19 00:35:15;;;;;;;25.95;15.20;;;;;;;2.38;86.11;103005.00;5092571;28;20604;-69
2022/01/19 00:37:42;;;;;;;28.70;15.25;;;;;;;2.36;85.70;102991.78;5092807;28;20463;-68
2022/01/19 00:40:09;;;;;;;27.33;14.80;;;;;;;2.35;86.28;102981.19;5091257;28;20028;-68
2022/01/19 00:42:35;;;;;;;33.08;15.45;;;;;;;2.37;86.47;102971.25;5092764;28;20028;-69
2022/01/19 00:45:00;;;;;;;32.63;16.77;;;;;;;2.35;86.73;102968.69;5091282;28;20475;-69
2022/01/19 00:47:25;;;;;;;36.40;17.23;;;;;;;2.35;86.62;102984.72;5092486;28;20076;-68
2022/01/19 00:49:51;;;;;;;28.08;16.67;;;;;;;2.32;87.25;102995.63;5092660;28;20024;-68
2022/01/19 00:52:16;;;;;;;36.80;17.70;;;;;;;2.32;87.81;102998.31;5092339;28;20032;-69
2022/01/19 00:54:42;;;;;;;31.88;17.60;;;;;;;2.32;87.68;102998.31;5092719;28;20395;-68
2022/01/19 00:57:09;;;;;;;57.28;18.83;;;;;;;2.27;88.54;102993.31;5092417;28;20020;-69
2022/01/19 00:59:34;;;;;;;45.47;18.67;;;;;;;2.34;88.55;103003.53;5092295;28;20036;-69
2022/01/19 01:02:00;;;;;;;44.08;18.50;;;;;;;2.36;88.29;103006.97;5088687;28;20043;-69
2022/01/19 01:04:26;;;;;;;51.17;17.23;;;;;;;2.36;88.78;103012.31;5092300;28;20067;-68
2022/01/19 01:06:51;;;;;;;79.15;17.35;;;;;;;2.32;89.00;103002.81;5092452;28;20038;-69
2022/01/19 01:09:16;;;;;;;63.17;17.65;;;;;;;2.33;88.99;102999.19;5092203;28;20024;-69
2022/01/19 01:11:56;;;;;;;48.83;16.10;;;;;;;2.27;88.85;102989.81;5096164;28;20077;-68
2022/01/19 01:18:17;;;;;;;27.00;16.17;;;;;;;2.30;88.81;102970.88;5095059;28;20051;-68
2022/01/19 01:20:00;;;;;;;37.60;15.48;;;;;;;2.29;89.17;102953.13;5096239;28;20425;-68
2022/01/19 01:22:26;;;;;;;37.20;15.73;;;;;;;2.27;88.82;102945.25;5094777;28;20134;-68
2022/01/19 01:24:51;;;;;;;44.85;14.85;;;;;;;2.26;89.19;102940.84;5096316;28;20515;-68
2022/01/19 01:27:16;;;;;;;37.17;15.27;;;;;;;2.28;89.16;102930.91;5095640;28;20475;-68
2022/01/19 01:29:42;;;;;;;26.70;15.50;;;;;;;2.30;89.36;102918.28;5096212;28;20024;-67
2022/01/19 01:32:08;;;;;;;37.72;15.60;;;;;;;2.29;89.67;102916.59;5095591;28;20455;-68
2022/01/19 01:34:33;;;;;;;41.75;15.38;;;;;;;2.30;89.33;102912.94;5096115;28;20064;-68
2022/01/19 01:36:59;;;;;;;35.35;14.38;;;;;;;2.30;89.77;102896.91;5096027;28;20059;-69
2022/01/19 01:39:25;;;;;;;32.63;14.90;;;;;;;2.30;89.60;102880.03;5094520;28;20059;-68
2022/01/19 01:41:50;;;;;;;29.15;16.40;;;;;;;2.28;89.28;102871.28;5095997;28;20113;-68
2022/01/19 01:44:16;;;;;;;24.67;15.73;;;;;;;2.30;89.36;102867.53;5095597;28;20028;-68
2022/01/19 01:46:48;;;;;;;24.25;16.35;;;;;;;2.30;88.85;102867.53;5095835;28;20125;-68
2022/01/19 01:49:21;;;;;;;26.23;17.35;;;;;;;2.30;89.35;102867.53;5094167;28;20050;-68
2022/01/19 01:54:31;;;;;;;27.67;17.08;;;;;;;2.25;88.81;102864.38;5095830;28;20043;-68
2022/01/19 01:56:56;;;;;;;24.95;16.52;;;;;;;2.28;88.60;102872.13;5095973;28;20024;-69
2022/01/19 01:59:22;;;;;;;27.08;17.40;;;;;;;2.21;88.77;102886.94;5095376;28;20060;-68
2022/01/19 02:01:47;;;;;;;28.35;17.70;;;;;;;2.16;88.35;102873.09;5093116;28;20123;-68
2022/01/19 02:04:12;;;;;;;29.35;18.15;;;;;;;2.21;87.63;102876.25;5095036;28;20034;-68
2022/01/19 02:07:02;;;;;;;28.13;17.48;;;;;;;2.17;88.00;102863.25;5095423;28;20039;-68
2022/01/19 02:09:30;;;;;;;25.38;16.45;;;;;;;2.17;88.02;102858.75;5094685;28;20036;-68
2022/01/19 02:22:51;;;;;;;31.00;18.58;;;;;;;2.00;88.01;102836.03;5095142;28;20088;-69
2022/01/19 02:25:17;;;;;;;31.52;18.80;;;;;;;2.00;87.59;102840.56;5094928;28;20028;-69
2022/01/19 02:41:06;;;;;;;26.75;17.67;;;;;;;1.77;86.90;102766.59;5094893;28;20171;-69
2022/01/19 02:43:31;;;;;;;32.50;18.67;;;;;;;1.74;87.08;102763.34;5094580;28;20099;-68
2022/01/19 02:51:25;;;;;;;28.90;17.08;;;;;;;1.68;86.97;102751.31;5094183;28;20039;-69
2022/01/19 02:53:50;;;;;;;27.55;16.92;;;;;;;1.66;87.19;102749.72;5093057;28;20459;-69
2022/01/19 02:56:27;;;;;;;27.05;16.50;;;;;;;1.65;87.26;102753.38;5093050;28;20443;-68
2022/01/19 02:58:59;;;;;;;24.40;16.67;;;;;;;1.61;86.70;102760.75;5094556;28;20421;-68
2022/01/19 03:09:28;;;;;;;30.02;17.27;;;;;;;1.53;86.36;102734.66;5093926;28;20036;-67
2022/01/19 03:11:55;;;;;;;24.60;16.05;;;;;;;1.50;86.67;102729.56;5094252;28;20456;-68
2022/01/19 03:14:21;;;;;;;22.13;15.35;;;;;;;1.47;86.99;102720.97;5093438;28;20032;-68
2022/01/19 03:16:46;;;;;;;24.73;16.17;;;;;;;1.44;86.37;102716.72;5094165;28;20024;-68
2022/01/19 03:19:12;;;;;;;27.88;16.48;;;;;;;1.40;86.05;102709.91;5092561;28;20128;-69
2022/01/19 03:21:40;;;;;;;26.10;16.33;;;;;;;1.41;86.24;102711.63;5094028;28;20032;-76
2022/01/19 03:24:06;;;;;;;28.98;17.70;;;;;;;1.41;86.65;102704.44;5094032;28;20028;-75
2022/01/19 03:26:31;;;;;;;31.65;18.05;;;;;;;1.39;86.05;102705.56;5093757;28;20510;-76
2022/01/19 03:28:57;;;;;;;28.30;17.50;;;;;;;1.39;86.85;102697.56;5093845;28;20028;-68
2022/01/19 03:31:22;;;;;;;32.70;18.42;;;;;;;1.37;86.46;102694.97;5093676;28;20031;-70
2022/01/19 03:33:48;;;;;;;34.63;19.00;;;;;;;1.40;86.74;102688.56;5093230;28;20028;-69
2022/01/19 03:36:13;;;;;;;28.52;19.27;;;;;;;1.44;86.97;102683.84;5093523;28;20035;-69
2022/01/19 03:38:38;;;;;;;34.72;20.10;;;;;;;1.39;87.12;102678.88;5092393;28;20028;-68
2022/01/19 03:41:04;;;;;;;36.78;19.67;;;;;;;1.40;86.92;102669.88;5093642;28;20122;-68
2022/01/19 03:43:29;;;;;;;34.00;20.17;;;;;;;1.42;87.01;102671.47;5092145;28;20069;-68
2022/01/19 03:45:58;;;;;;;35.17;20.90;;;;;;;1.42;87.46;102675.97;5093624;28;20077;-68
2022/01/19 03:48:36;;;;;;;34.85;20.90;;;;;;;1.44;87.06;102667.84;5092006;28;20510;-67
2022/01/19 03:51:03;;;;;;;38.85;21.45;;;;;;;1.48;87.33;102658.63;5092158;28;20085;-67
2022/01/19 03:53:29;;;;;;;36.03;21.98;;;;;;;1.48;87.56;102647.94;5093190;28;20035;-68
2022/01/19 03:55:54;;;;;;;35.60;21.45;;;;;;;1.50;87.15;102638.03;5093671;28;20036;-68
2022/01/19 03:58:20;;;;;;;37.00;22.45;;;;;;;1.54;87.79;102643.00;5093159;28;20057;-68
2022/01/19 04:00:46;;;;;;;36.10;22.20;;;;;;;1.56;88.03;102630.38;5090746;28;20134;-68
2022/01/19 04:03:16;;;;;;;36.67;21.88;;;;;;;1.56;88.74;102630.38;5093376;28;20028;-68
2022/01/19 04:05:57;;;;;;;37.67;22.42;;;;;;;1.57;88.62;102625.88;5093238;28;20063;-68
2022/01/19 04:08:23;;;;;;;38.17;22.83;;;;;;;1.59;88.14;102624.78;5091637;28;20035;-68
2022/01/19 04:10:48;;;;;;;35.83;22.67;;;;;;;1.61;88.64;102631.81;5091860;28;20262;-67
2022/01/19 04:15:53;;;;;;;39.05;23.13;;;;;;;1.59;88.10;102630.13;5093117;28;20475;-68
2022/01/19 04:18:18;;;;;;;39.67;22.90;;;;;;;1.61;88.56;102615.81;5092817;28;20039;-67
2022/01/19 04:20:48;;;;;;;43.53;22.63;;;;;;;1.60;87.83;102612.28;5091698;28;20084;-68
2022/01/19 04:23:14;;;;;;;40.17;23.67;;;;;;;1.55;89.27;102611.81;5092952;28;20026;-69
2022/01/19 04:25:40;;;;;;;37.60;23.20;;;;;;;1.56;88.60;102617.03;5092919;28;20024;-67
2022/01/19 04:28:07;;;;;;;41.22;23.73;;;;;;;1.57;88.79;102615.19;5092807;28;20181;-68
2022/01/19 04:30:36;;;;;;;38.88;23.95;;;;;;;1.57;89.04;102616.06;5092685;28;20185;-68
2022/01/19 04:33:13;;;;;;;42.78;25.23;;;;;;;1.57;89.28;102618.72;5092768;28;20036;-69
2022/01/19 04:35:45;;;;;;;43.83;24.58;;;;;;;1.59;89.53;102629.28;5092571;28;20032;-67
2022/01/19 04:39:04;;;;;;;42.80;25.23;;;;;;;1.61;88.96;102627.31;5092840;28;20428;-68
2022/01/19 04:44:13;;;;;;;44.80;27.25;;;;;;;1.57;88.85;102625.88;5092122;28;20084;-68
2022/01/19 04:47:27;;;;;;;50.20;27.42;;;;;;;1.56;89.04;102626.84;5091690;28;20071;-68
2022/01/19 05:03:50;;;;;;;57.28;29.90;;;;;;;1.31;90.04;102617.25;5092307;28;20093;-67
2022/01/19 05:06:18;;;;;;;59.45;30.48;;;;;;;1.28;90.48;102606.84;5092509;28;20086;-68
2022/01/19 05:13:58;;;;;;;57.75;28.65;;;;;;;1.17;90.63;102597.84;5092228;28;20038;-68
2022/01/19 05:16:24;;;;;;;51.70;30.33;;;;;;;1.13;90.53;102596.38;5092180;28;20028;-69
2022/01/19 05:18:50;;;;;;;50.25;29.38;;;;;;;1.11;90.91;102593.00;5092351;28;20490;-67
2022/01/19 05:21:16;;;;;;;49.47;28.30;;;;;;;1.14;91.21;102598.09;5092327;28;20028;-67
2022/01/19 05:23:42;;;;;;;50.83;28.70;;;;;;;1.16;90.59;102601.50;5092061;28;20024;-68
2022/01/19 05:26:07;;;;;;;52.80;29.65;;;;;;;1.13;91.07;102603.56;5091992;28;20027;-68
2022/01/19 05:28:33;;;;;;;53.00;29.27;;;;;;;1.11;91.06;102602.84;5090661;28;20028;-67
2022/01/19 05:30:58;;;;;;;45.75;28.42;;;;;;;1.13;91.00;102607.06;5091995;28;20024;-68
2022/01/19 05:33:23;;;;;;;49.25;29.23;;;;;;;1.15;90.65;102610.47;5091980;28;20039;-67
2022/01/19 05:35:48;;;;;;;49.03;29.35;;;;;;;1.13;91.79;102611.53;5092514;28;20074;-68
2022/01/19 05:38:14;;;;;;;45.13;27.83;;;;;;;1.10;91.86;102604.63;5092316;28;20115;-67
2022/01/19 05:40:39;;;;;;;44.17;28.08;;;;;;;1.13;91.69;102596.38;5091972;28;20085;-68
2022/01/19 05:43:04;;;;;;;45.65;28.00;;;;;;;1.15;91.28;102599.81;5092187;28;20068;-68
2022/01/19 05:45:30;;;;;;;46.67;27.55;;;;;;;1.19;91.54;102597.72;5091505;28;20024;-67
2022/01/19 05:47:55;;;;;;;42.92;26.73;;;;;;;1.21;91.30;102599.31;5091999;28;20105;-68
2022/01/19 05:50:21;;;;;;;47.28;27.15;;;;;;;1.24;91.34;102593.75;5091881;28;20046;-68
2022/01/19 05:52:46;;;;;;;43.05;25.83;;;;;;;1.32;91.21;102589.63;5090733;28;20524;-68
2022/01/19 05:55:12;;;;;;;39.70;25.52;;;;;;;1.33;91.36;102580.63;5092036;28;20329;-68
2022/01/19 05:57:37;;;;;;;43.92;26.77;;;;;;;1.39;91.49;102574.84;5095283;28;20028;-68
2022/01/19 06:00:05;;;;;;;42.08;26.88;;;;;;;1.38;91.16;102581.97;5095499;28;20145;-68
2022/01/19 06:02:30;;;;;;;39.97;25.75;;;;;;;1.43;90.58;102586.94;5093316;28;20074;-67
2022/01/19 06:04:56;;;;;;;40.92;25.60;;;;;;;1.45;91.04;102589.50;5095535;28;20071;-67
2022/01/19 06:07:28;;;;;;;40.95;25.25;;;;;;;1.44;90.49;102586.00;5095119;28;20020;-68
2022/01/19 06:10:02;;;;;;;41.55;26.20;;;;;;;1.44;90.62;102583.31;5095443;28;20027;-67
2022/01/19 06:12:28;;;;;;;41.92;26.40;;;;;;;1.42;91.34;102579.94;5095139;28;20024;-68
2022/01/19 06:14:54;;;;;;;44.42;26.27;;;;;;;1.46;91.23;102576.03;5095106;28;20036;-67
2022/01/19 06:17:19;;;;;;;42.63;25.67;;;;;;;1.46;90.98;102570.69;5095589;28;20379;-68
2022/01/19 06:19:47;;;;;;;39.55;25.48;;;;;;;1.50;91.12;102576.66;5093418;28;20032;-68
2022/01/19 06:22:14;;;;;;;38.33;25.20;;;;;;;1.50;91.21;102572.16;5095228;28;20375;-68
2022/01/19 06:24:39;;;;;;;39.97;24.15;;;;;;;1.53;91.32;102571.91;5094948;28;20478;-68
2022/01/19 06:27:05;;;;;;;39.13;24.88;;;;;;;1.55;91.56;102569.97;5095126;28;20036;-68
2022/01/19 06:29:30;;;;;;;39.40;25.63;;;;;;;1.57;90.98;102572.50;5093517;28;20028;-67
2022/01/19 06:31:55;;;;;;;38.97;25.05;;;;;;;1.61;91.25;102557.94;5094879;28;20024;-67
2022/01/19 06:34:20;;;;;;;36.88;24.33;;;;;;;1.64;90.80;102556.84;5093821;28;20024;-68
2022/01/19 06:36:48;;;;;;;37.28;24.40;;;;;;;1.64;91.21;102546.19;5094474;28;20471;-68
2022/01/19 06:39:13;;;;;;;38.17;25.05;;;;;;;1.63;91.41;102549.81;5094926;28;20036;-68
2022/01/19 06:41:38;;;;;;;38.05;24.35;;;;;;;1.68;90.79;102544.97;5094603;28;20020;-67
2022/01/19 06:44:05;;;;;;;38.08;23.83;;;;;;;1.70;91.20;102537.69;5094757;28;20582;-68
2022/01/19 06:46:31;;;;;;;36.75;24.70;;;;;;;1.67;91.42;102529.94;5093259;28;20036;-67
2022/01/19 06:48:56;;;;;;;37.10;24.80;;;;;;;1.67;91.50;102535.25;5094607;28;20035;-67
2022/01/19 06:51:22;;;;;;;37.92;24.85;;;;;;;1.68;91.01;102526.28;5094393;28;20028;-67
2022/01/19 06:53:47;;;;;;;37.55;24.30;;;;;;;1.70;91.29;102516.31;5094344;28;20032;-68
2022/01/19 06:56:12;;;;;;;36.50;24.40;;;;;;;1.72;91.25;102522.38;5094594;28;20470;-68
2022/01/19 06:58:38;;;;;;;35.65;24.65;;;;;;;1.71;90.72;102518.88;5094270;28;20036;-68
2022/01/19 07:01:03;;;;;;;35.17;23.77;;;;;;;1.70;91.39;102502.97;5092058;28;20126;-68
2022/01/19 07:03:31;;;;;;;40.13;24.45;;;;;;;1.73;90.62;102508.06;5094267;28;20106;-67
2022/01/19 07:06:01;;;;;;;36.40;23.83;;;;;;;1.77;91.46;102504.19;5094382;28;20375;-68
2022/01/19 07:08:26;;;;;;;38.50;24.08;;;;;;;1.80;90.61;102503.06;5093065;28;20463;-68
2022/01/19 07:10:52;;;;;;;35.85;23.73;;;;;;;1.79;90.77;102488.88;5094104;28;20169;-68
2022/01/19 07:13:18;;;;;;;38.03;22.73;;;;;;;1.81;90.72;102504.75;5094306;28;20050;-68
2022/01/19 07:15:43;;;;;;;33.40;22.63;;;;;;;1.80;91.64;102493.25;5093952;28;20032;-68
2022/01/19 07:18:09;;;;;;;37.67;24.80;;;;;;;1.80;90.84;102501.25;5094361;28;20024;-68
2022/01/19 07:20:34;;;;;;;35.38;22.80;;;;;;;1.81;91.72;102488.75;5092515;28;20038;-68
2022/01/19 07:23:01;;;;;;;34.83;23.02;;;;;;;1.83;91.74;102490.31;5092678;28;20065;-68
2022/01/19 07:25:28;;;;;;;35.10;23.45;;;;;;;1.86;91.31;102492.75;5093771;28;20063;-68
2022/01/19 07:27:53;;;;;;;35.20;23.48;;;;;;;1.84;91.58;102491.16;5093553;28;20571;-68
2022/01/19 07:30:18;;;;;;;35.03;23.40;;;;;;;1.84;91.27;102489.38;5093705;28;20110;-68
2022/01/19 07:32:44;;;;;;;34.70;22.90;;;;;;;1.87;91.87;102489.09;5093730;28;20036;-68
2022/01/19 07:35:09;;;;;;;33.97;22.70;;;;;;;1.87;91.26;102481.09;5093835;28;20024;-68
2022/01/19 07:37:35;;;;;;;36.10;21.90;;;;;;;1.89;91.39;102480.97;5093523;28;20107;-68
2022/01/19 07:40:01;;;;;;;32.72;22.55;;;;;;;1.91;91.44;102485.19;5093695;28;20063;-68
2022/01/19 07:42:26;;;;;;;34.85;22.15;;;;;;;1.98;91.54;102482.88;5093612;28;20030;-68
2022/01/19 07:44:53;;;;;;;33.50;22.88;;;;;;;1.99;90.90;102478.38;5093589;28;20058;-68
2022/01/19 07:47:19;;;;;;;33.85;22.17;;;;;;;1.99;91.58;102470.34;5092241;28;20024;-68
2022/01/19 07:49:44;;;;;;;31.67;21.85;;;;;;;2.01;91.50;102468.41;5092951;28;20032;-68
2022/01/19 07:52:09;;;;;;;33.80;22.08;;;;;;;2.00;91.96;102466.72;5093436;28;20039;-67
2022/01/19 07:54:35;;;;;;;36.45;22.73;;;;;;;1.98;91.61;102476.66;5093135;28;20059;-68
2022/01/19 07:57:00;;;;;;;30.92;21.17;;;;;;;2.00;91.49;102469.41;5093127;28;20032;-68
2022/01/19 07:59:26;;;;;;;33.22;22.20;;;;;;;2.03;91.73;102480.66;5093128;28;20055;-68
2022/01/19 08:01:53;;;;;;;31.63;20.90;;;;;;;2.05;91.59;102473.34;5090032;28;20048;-68
2022/01/19 08:04:18;;;;;;;32.63;21.63;;;;;;;2.04;91.84;102470.81;5093275;28;20114;-67
2022/01/19 08:06:43;;;;;;;33.70;22.33;;;;;;;2.07;92.00;102467.91;5091715;28;20547;-68
2022/01/19 08:09:09;;;;;;;32.05;21.83;;;;;;;2.12;92.14;102465.69;5093091;28;20028;-68
2022/01/19 08:11:35;;;;;;;30.38;21.00;;;;;;;2.13;91.52;102470.91;5092996;28;20509;-68
2022/01/19 08:14:01;;;;;;;34.92;22.25;;;;;;;2.14;91.84;102463.72;5093063;28;20081;-68
2022/01/19 08:16:26;;;;;;;32.33;21.83;;;;;;;2.16;91.66;102467.13;5093084;28;20033;-68
2022/01/19 08:18:51;;;;;;;36.30;22.52;;;;;;;2.17;91.65;102462.63;5092929;28;20459;-68
2022/01/19 08:21:17;;;;;;;33.20;21.75;;;;;;;2.20;92.25;102452.50;5091716;28;20023;-68
2022/01/19 08:23:42;;;;;;;32.03;21.75;;;;;;;2.19;91.64;102445.50;5092438;28;20028;-68
2022/01/19 08:26:07;;;;;;;31.33;22.42;;;;;;;2.21;91.95;102443.53;5092637;28;20111;-68
2022/01/19 08:28:33;;;;;;;31.13;21.35;;;;;;;2.23;91.62;102449.59;5092716;28;20060;-68
2022/01/19 08:30:58;;;;;;;32.10;22.52;;;;;;;2.22;91.65;102445.25;5092861;28;20089;-68
2022/01/19 08:33:24;;;;;;;33.30;22.30;;;;;;;2.28;91.82;102447.38;5091531;28;20055;-68
2022/01/19 08:35:51;;;;;;;32.75;22.63;;;;;;;2.24;91.79;102434.41;5092497;28;20077;-68
2022/01/19 08:38:16;;;;;;;31.73;22.23;;;;;;;2.24;91.65;102435.25;5092833;28;20296;-68
2022/01/19 08:40:41;;;;;;;30.02;21.42;;;;;;;2.25;92.15;102434.28;5091236;28;20338;-68
2022/01/19 08:43:07;;;;;;;29.85;21.13;;;;;;;2.26;92.13;102433.28;5092410;28;20035;-68
2022/01/19 08:45:35;;;;;;;30.08;22.23;;;;;;;2.32;91.85;102441.78;5092350;28;20027;-68
2022/01/19 08:48:00;;;;;;;30.52;21.42;;;;;;;2.32;91.65;102426.59;5092619;28;20439;-68
2022/01/19 08:50:26;;;;;;;31.40;21.65;;;;;;;2.38;91.56;102425.22;5091364;28;20066;-68
2022/01/19 08:52:51;;;;;;;30.77;22.02;;;;;;;2.35;91.89;102422.81;5092076;28;20034;-68
2022/01/19 08:55:17;;;;;;;34.05;22.08;;;;;;;2.40;91.64;102420.56;5092593;28;20065;-68
2022/01/19 08:57:44;;;;;;;30.98;21.00;;;;;;;2.35;91.88;102410.28;5092375;28;20039;-68
2022/01/19 09:00:12;;;;;;;32.80;21.42;;;;;;;2.41;91.71;102414.25;5092265;28;20120;-68
2022/01/19 09:02:38;;;;;;;31.67;21.70;;;;;;;2.43;91.58;102414.97;5089798;28;20028;-68
2022/01/19 09:05:04;;;;;;;30.30;22.02;;;;;;;2.40;91.72;102410.75;5091204;28;20055;-68
2022/01/19 09:07:30;;;;;;;30.05;21.23;;;;;;;2.42;92.24;102411.47;5092451;28;20035;-68
2022/01/19 09:09:55;;;;;;;27.17;20.65;;;;;;;2.44;91.63;102405.97;5092115;28;20036;-68
2022/01/19 09:12:20;;;;;;;31.10;20.98;;;;;;;2.45;91.68;102402.34;5092442;28;20459;-68
2022/01/19 09:14:46;;;;;;;31.48;21.48;;;;;;;2.48;91.85;102396.72;5090814;28;20103;-68
2022/01/19 09:17:11;;;;;;;30.77;21.48;;;;;;;2.47;91.70;102397.69;5092363;28;20077;-68
2022/01/19 09:19:39;;;;;;;30.80;21.45;;;;;;;2.48;92.51;102397.56;5092135;28;20413;-68
2022/01/19 09:22:06;;;;;;;27.00;20.92;;;;;;;2.48;92.24;102391.38;5092122;28;20502;-68
2022/01/19 09:24:33;;;;;;;29.83;20.50;;;;;;;2.53;nan;102390.97;5092430;28;20103;-68
2022/01/19 09:26:59;;;;;;;28.88;20.50;;;;;;;2.56;92.08;102399.56;5092367;28;20028;-68
2022/01/19 09:29:24;;;;;;;29.35;20.58;;;;;;;2.56;91.97;102394.22;5092234;28;20576;-68
2022/01/19 09:31:49;;;;;;;33.50;21.42;;;;;;;2.58;91.81;102400.31;5092866;28;20035;-68
2022/01/19 09:34:19;;;;;;;31.30;20.45;;;;;;;2.59;91.70;102388.59;5096148;28;20352;-68
2022/01/19 09:36:45;;;;;;;29.27;20.60;;;;;;;2.58;92.12;102381.59;5096066;28;20505;-68
2022/01/19 09:39:12;;;;;;;28.90;20.40;;;;;;;2.59;92.11;102377.09;5094802;28;20368;-68
2022/01/19 09:41:38;;;;;;;28.85;20.15;;;;;;;2.59;91.84;102372.56;5095530;28;20027;-68
2022/01/19 09:44:03;;;;;;;29.35;21.30;;;;;;;2.63;91.66;102374.00;5095870;28;20087;-68
2022/01/19 09:46:29;;;;;;;29.02;20.70;;;;;;;2.64;91.77;102366.81;5095907;28;20533;-68
2022/01/19 09:48:56;;;;;;;29.35;20.83;;;;;;;2.61;91.80;102357.25;5094289;28;20401;-68
2022/01/19 09:51:21;;;;;;;29.40;21.45;;;;;;;2.65;91.84;102352.47;5095643;28;20066;-68
2022/01/19 09:53:47;;;;;;;27.23;21.05;;;;;;;2.68;91.93;102340.69;5095509;28;20048;-68
2022/01/19 09:56:16;;;;;;;27.77;20.80;;;;;;;2.65;92.17;102345.31;5096022;28;20032;-68
2022/01/19 09:58:41;;;;;;;30.80;21.05;;;;;;;2.69;91.85;102339.69;5095462;28;20111;-68
2022/01/19 10:01:09;;;;;;;28.95;21.23;;;;;;;2.70;92.14;102338.72;5092752;28;20135;-68
2022/01/19 10:03:34;;;;;;;32.15;21.23;;;;;;;2.71;92.19;102335.06;5095646;28;20032;-68
2022/01/19 10:06:07;;;;;;;29.70;20.95;;;;;;;2.75;92.25;102339.13;5095313;28;20092;-68
2022/01/19 10:08:32;;;;;;;28.92;21.08;;;;;;;2.78;92.01;102331.69;5095372;28;20055;-68
2022/01/19 10:17:03;;;;;;;30.13;20.70;;;;;;;2.83;92.42;102316.09;5095093;28;20101;-69
2022/01/19 10:19:41;;;;;;;27.50;19.67;;;;;;;2.90;92.17;102321.75;5094994;28;20441;-68
2022/01/19 10:22:14;;;;;;;27.20;20.60;;;;;;;2.90;92.51;102328.91;5095243;28;20082;-68
2022/01/19 10:24:48;;;;;;;28.52;21.48;;;;;;;2.94;91.77;102327.66;5094965;28;20046;-68
2022/01/19 10:27:19;;;;;;;28.88;20.77;;;;;;;2.98;92.11;102321.88;5093857;28;20063;-68
2022/01/19 10:29:45;;;;;;;30.40;22.30;;;;;;;3.01;92.46;102324.28;5094859;28;20035;-68
2022/01/19 10:32:12;;;;;;;29.98;22.13;;;;;;;3.04;nan;102322.31;5095056;28;20177;-68
2022/01/19 10:34:37;;;;;;;32.08;22.50;;;;;;;3.04;92.05;102316.97;5094713;28;20387;-68
2022/01/19 10:37:04;;;;;;;29.83;21.25;;;;;;;3.05;92.15;102308.81;5094523;28;20028;-68
2022/01/19 10:40:00;;;;;;;30.90;20.63;;;;;;;3.10;92.23;102298.53;5095024;28;20041;-68
2022/01/19 10:42:27;;;;;;;33.05;20.98;;;;;;;3.10;91.64;102295.03;5093804;28;20043;-68
2022/01/19 10:44:58;;;;;;;28.83;20.27;;;;;;;3.09;91.84;102282.63;5094545;28;20028;-68
2022/01/19 10:47:45;;;;;;;30.27;20.73;;;;;;;3.13;91.90;102284.03;5094777;28;20035;-71
2022/01/19 10:50:14;;;;;;;28.50;19.80;;;;;;;3.14;91.79;102285.72;5094674;28;20020;-71
2022/01/19 10:52:42;;;;;;;31.08;20.80;;;;;;;3.13;91.53;102270.66;5094726;28;20057;-67
2022/01/19 10:55:23;;;;;;;26.30;20.20;;;;;;;3.22;91.94;102293.06;5094668;28;20098;-68
2022/01/19 10:57:50;;;;;;;30.30;19.98;;;;;;;3.15;91.25;102295.44;5094310;28;20032;-68
2022/01/19 11:00:24;;;;;;;28.15;20.85;;;;;;;3.18;91.29;102297.81;5094511;28;20131;-68
2022/01/19 11:02:52;;;;;;;31.70;20.52;;;;;;;3.15;91.95;102282.91;5092573;28;20417;-68
2022/01/19 11:05:42;;;;;;;28.10;20.27;;;;;;;3.19;91.81;102272.78;5094411;28;20028;-68
2022/01/19 11:08:08;;;;;;;30.80;20.88;;;;;;;3.17;92.00;102270.25;5094284;28;20032;-68
2022/01/19 11:10:33;;;;;;;29.02;21.20;;;;;;;3.21;92.02;102268.13;5094330;28;20028;-68
2022/01/19 11:12:59;;;;;;;29.67;20.90;;;;;;;3.21;92.02;102262.78;5092440;28;20472;-68
2022/01/19 11:15:25;;;;;;;28.40;21.35;;;;;;;3.21;92.32;102254.75;5094219;28;20040;-68
2022/01/19 11:17:50;;;;;;;30.60;21.92;;;;;;;3.24;92.03;102257.13;5094226;28;20070;-68
2022/01/19 11:20:19;;;;;;;31.17;22.02;;;;;;;3.22;92.34;102240.38;5092830;28;20466;-68
2022/01/19 11:23:08;;;;;;;30.67;21.77;;;;;;;3.30;92.07;102243.19;5093839;28;20024;-69
2022/01/19 11:25:45;;;;;;;28.15;21.50;;;;;;;3.25;91.87;102233.91;5094277;28;20464;-68
2022/01/19 11:28:11;;;;;;;31.85;22.00;;;;;;;3.23;91.70;102225.16;5092584;28;20024;-68
2022/01/19 11:30:45;;;;;;;31.98;22.30;;;;;;;3.25;91.58;102232.06;5093892;28;20034;-69
2022/01/19 11:33:16;;;;;;;34.20;22.77;;;;;;;3.26;91.41;102230.22;5094092;28;20505;-69
2022/01/19 11:35:46;;;;;;;31.23;22.88;;;;;;;3.23;91.68;102220.69;5093842;28;20055;-68
2022/01/19 11:38:43;;;;;;;32.35;23.02;;;;;;;3.32;91.42;102213.59;5093746;28;20229;-68
2022/01/19 11:41:08;;;;;;;32.63;22.63;;;;;;;3.28;91.19;102199.69;5093664;28;20064;-68
2022/01/19 11:43:35;;;;;;;30.73;21.47;;;;;;;3.28;91.07;102197.00;5093681;28;20056;-68
2022/01/19 11:46:03;;;;;;;33.30;23.40;;;;;;;3.26;91.57;102187.44;5093271;28;20254;-69
2022/01/19 11:48:33;;;;;;;31.05;22.95;;;;;;;3.28;91.42;102194.34;5092251;28;20417;-68
2022/01/19 11:51:26;;;;;;;32.92;24.13;;;;;;;3.30;91.47;102183.50;5093422;28;20028;-69
2022/01/19 11:54:05;;;;;;;32.55;24.38;;;;;;;3.31;91.39;102180.66;5090419;28;20044;-68
2022/01/19 11:56:31;;;;;;;32.50;23.13;;;;;;;3.30;91.51;102173.63;5093512;28;20031;-68
2022/01/19 11:59:05;;;;;;;35.75;23.92;;;;;;;3.34;91.45;102169.69;5092866;28;20028;-68
2022/01/19 12:01:30;;;;;;;35.53;25.45;;;;;;;3.35;91.15;102160.66;5088722;28;20132;-68
2022/01/19 12:04:21;;;;;;;33.22;24.23;;;;;;;3.39;91.41;102155.84;5090974;28;20020;-68
2022/01/19 12:06:47;;;;;;;37.80;25.52;;;;;;;3.39;90.97;102153.19;5092264;28;20028;-68
2022/01/19 12:09:14;;;;;;;35.15;25.35;;;;;;;3.40;90.79;102154.00;5090893;28;20047;-68
2022/01/19 12:11:49;;;;;;;35.53;26.00;;;;;;;3.37;91.47;102142.63;5091257;28;20024;-68
2022/01/19 12:14:33;;;;;;;38.30;28.30;;;;;;;3.37;91.34;102155.16;5092770;28;20058;-68
2022/01/19 12:17:24;;;;;;;37.78;27.63;;;;;;;3.38;91.21;102148.81;5090850;28;20116;-68
2022/01/19 12:19:50;;;;;;;41.20;29.02;;;;;;;3.39;91.33;102136.28;5091827;28;20543;-68
2022/01/19 12:22:25;;;;;;;41.08;29.17;;;;;;;3.40;91.64;102127.25;5092229;28;20028;-69
2022/01/19 12:24:56;;;;;;;39.13;29.27;;;;;;;3.41;91.41;102116.41;5091620;28;20027;-68
2022/01/19 12:27:30;;;;;;;42.43;29.77;;;;;;;3.46;90.88;102113.31;5092201;28;20063;-68
2022/01/19 12:29:58;;;;;;;39.75;30.23;;;;;;;3.47;91.25;102109.63;5091789;28;20284;-68
2022/01/19 12:32:26;;;;;;;41.63;29.95;;;;;;;3.51;90.75;102106.50;5091779;28;20365;-68
2022/01/19 12:35:03;;;;;;;44.17;31.05;;;;;;;3.50;90.41;102114.69;5090466;28;20063;-68